Time;durP1;ratioP1;P1;durP2;ratioP2;P2;SDS_P1;SDS_P2;PMS_P1;PMS_P2;Temp;Humidity;BMP_temperature;BMP_pressure;BME280_temperature;BME280_humidity;BME280_pressure;Samples;Min_cycle;Max_cycle;Signal;HPM_P1;HPM_P2
2023/03/09 00:00:37;;;;;;;;;;;1.90;99.90;;;;;;4954287;28;19927;-65
2023/03/09 00:03:15;;;;;;;;;;;1.90;99.90;;;;;;4973182;28;20013;-65
2023/03/09 00:05:42;;;;;;;;;;;2.00;99.90;;;;;;4964972;28;20021;-65
2023/03/09 00:08:08;;;;;;;;;;;2.00;99.90;;;;;;4981553;28;20466;-65
2023/03/09 00:10:38;;;;;;;;;;;2.00;99.90;;;;;;4966937;28;19926;-65
2023/03/09 00:13:05;;;;;;;;;;;2.00;99.90;;;;;;4983312;28;20025;-65
2023/03/09 00:15:32;;;;;;;;;;;2.00;99.90;;;;;;4958481;28;19935;-65
2023/03/09 00:17:59;;;;;;;;;;;2.00;99.90;;;;;;4962425;28;19930;-65
2023/03/09 00:20:27;;;;;;;;;;;2.00;99.90;;;;;;4958771;28;20025;-65
2023/03/09 00:22:54;;;;;;;;;;;2.10;99.90;;;;;;4963029;28;19978;-65
2023/03/09 00:25:21;;;;;;;;;;;2.10;99.90;;;;;;4956949;28;20025;-65
2023/03/09 00:27:48;;;;;;;;;;;2.10;99.90;;;;;;4964801;28;19926;-65
2023/03/09 00:30:16;;;;;;;;;;;2.10;99.90;;;;;;4967119;28;19930;-65
2023/03/09 00:32:43;;;;;;;;;;;2.10;99.90;;;;;;4956194;28;19956;-65
2023/03/09 00:35:09;;;;;;;;;;;2.20;99.90;;;;;;4958283;28;19926;-65
2023/03/09 00:37:38;;;;;;;;;;;2.10;99.90;;;;;;4962131;28;19933;-65
2023/03/09 00:40:07;;;;;;;;;;;2.10;99.90;;;;;;4954688;28;19930;-65
2023/03/09 00:42:34;;;;;;;;;;;2.10;99.90;;;;;;4963163;28;20304;-66
2023/03/09 00:45:01;;;;;;;;;;;2.10;99.90;;;;;;4962151;28;19934;-65
2023/03/09 00:47:28;;;;;;;;;;;2.10;99.90;;;;;;4994450;28;19927;-65
2023/03/09 00:49:54;;;;;;;;;;;2.10;99.90;;;;;;4962120;28;20339;-65
2023/03/09 00:52:21;;;;;;;;;;;2.00;99.90;;;;;;4958449;28;19952;-65
2023/03/09 00:54:52;;;;;;;;;;;2.00;99.90;;;;;;4973328;28;19926;-66
2023/03/09 00:57:20;;;;;;;;;;;2.10;99.90;;;;;;4956266;28;19933;-64
2023/03/09 00:59:46;;;;;;;;;;;2.00;99.90;;;;;;4970247;28;20436;-64
2023/03/09 01:02:13;;;;;;;;;;;2.00;99.90;;;;;;4975282;28;19934;-65
2023/03/09 01:04:40;;;;;;;;;;;2.00;99.90;;;;;;4966650;28;20292;-65
2023/03/09 01:07:06;;;;;;;;;;;2.00;99.90;;;;;;4967794;28;19926;-65
2023/03/09 01:09:33;;;;;;;;;;;2.00;99.90;;;;;;4964373;28;19962;-65
2023/03/09 01:12:02;;;;;;;;;;;2.00;99.90;;;;;;4958166;28;20021;-65
2023/03/09 01:14:29;;;;;;;;;;;2.00;99.90;;;;;;4960391;28;20568;-65
2023/03/09 01:16:58;;;;;;;;;;;2.00;99.90;;;;;;5020623;28;19973;-65
2023/03/09 01:19:25;;;;;;;;;;;2.00;99.90;;;;;;4964196;28;19999;-65
2023/03/09 01:21:52;;;;;;;;;;;2.00;99.90;;;;;;4968834;28;19926;-65
2023/03/09 01:24:18;;;;;;;;;;;2.10;99.90;;;;;;4961046;28;20377;-66
2023/03/09 01:26:45;;;;;;;;;;;2.00;99.90;;;;;;4964970;28;19934;-65
2023/03/09 01:29:13;;;;;;;;;;;2.00;99.90;;;;;;4958302;28;19933;-66
2023/03/09 01:31:40;;;;;;;;;;;2.00;99.90;;;;;;4959442;28;19927;-66
2023/03/09 01:34:07;;;;;;;;;;;2.00;99.90;;;;;;4965558;28;19926;-66
2023/03/09 01:36:33;;;;;;;;;;;2.00;99.90;;;;;;4962089;28;20264;-65
2023/03/09 01:39:00;;;;;;;;;;;2.00;99.90;;;;;;4962372;28;20025;-65
2023/03/09 01:41:27;;;;;;;;;;;1.90;99.90;;;;;;5008621;28;19988;-65
2023/03/09 01:43:54;;;;;;;;;;;2.00;99.90;;;;;;4962879;28;20025;-66
2023/03/09 01:46:35;;;;;;;;;;;2.00;99.90;;;;;;4980687;28;19964;-65
2023/03/09 01:49:06;;;;;;;;;;;1.90;99.90;;;;;;4965788;28;19969;-66
2023/03/09 01:51:34;;;;;;;;;;;2.00;99.90;;;;;;4964140;28;19926;-65
2023/03/09 01:54:01;;;;;;;;;;;2.00;99.90;;;;;;4982451;28;20016;-66
2023/03/09 01:56:29;;;;;;;;;;;1.90;99.90;;;;;;4966992;28;20389;-65
2023/03/09 01:58:56;;;;;;;;;;;2.00;99.90;;;;;;4965394;28;19977;-66
2023/03/09 02:01:23;;;;;;;;;;;2.00;99.90;;;;;;4959402;28;19977;-65
2023/03/09 02:03:52;;;;;;;;;;;2.00;99.90;;;;;;4986187;28;19927;-65
2023/03/09 02:06:22;;;;;;;;;;;1.90;99.90;;;;;;4969612;28;20032;-65
2023/03/09 02:08:51;;;;;;;;;;;1.90;99.90;;;;;;4963513;28;20030;-66
2023/03/09 02:11:19;;;;;;;;;;;1.90;99.90;;;;;;4987608;28;19926;-66
2023/03/09 02:13:47;;;;;;;;;;;1.90;99.90;;;;;;4964987;28;19969;-66
2023/03/09 02:16:15;;;;;;;;;;;1.90;99.90;;;;;;4969025;28;19970;-66
2023/03/09 02:18:42;;;;;;;;;;;1.90;99.90;;;;;;4970851;28;19981;-66
2023/03/09 02:21:11;;;;;;;;;;;1.90;99.90;;;;;;4957262;28;20385;-66
2023/03/09 02:23:43;;;;;;;;;;;1.90;99.90;;;;;;4972343;28;19933;-66
2023/03/09 02:26:11;;;;;;;;;;;1.90;99.90;;;;;;4966254;28;20624;-66
2023/03/09 02:28:39;;;;;;;;;;;1.90;99.90;;;;;;4963597;28;19927;-65
2023/03/09 02:31:07;;;;;;;;;;;1.90;99.90;;;;;;4969481;28;19924;-65
2023/03/09 02:33:34;;;;;;;;;;;2.00;99.90;;;;;;4975096;28;20389;-65
2023/03/09 02:36:01;;;;;;;;;;;2.00;99.90;;;;;;5029762;28;19925;-65
2023/03/09 02:38:28;;;;;;;;;;;2.00;99.90;;;;;;4966738;28;19925;-65
2023/03/09 02:40:55;;;;;;;;;;;1.90;99.90;;;;;;4964176;28;19930;-65
2023/03/09 02:43:25;;;;;;;;;;;1.90;99.90;;;;;;5005512;28;19933;-65
2023/03/09 02:45:53;;;;;;;;;;;1.90;99.90;;;;;;5040991;28;19926;-65
2023/03/09 02:48:19;;;;;;;;;;;1.90;99.90;;;;;;5001512;28;19924;-65
2023/03/09 02:50:46;;;;;;;;;;;2.00;99.90;;;;;;4999350;28;20448;-65
2023/03/09 02:53:13;;;;;;;;;;;1.90;99.90;;;;;;4970259;28;19926;-65
2023/03/09 02:55:40;;;;;;;;;;;1.90;99.90;;;;;;5035083;28;19926;-65
2023/03/09 02:58:06;;;;;;;;;;;1.90;99.90;;;;;;4972880;28;19930;-65
2023/03/09 03:00:33;;;;;;;;;;;1.80;99.90;;;;;;4975094;28;19975;-65
2023/03/09 03:03:01;;;;;;;;;;;1.90;99.90;;;;;;5027757;28;19924;-65
2023/03/09 03:05:31;;;;;;;;;;;1.90;99.90;;;;;;5020640;28;20393;-67
2023/03/09 03:07:58;;;;;;;;;;;1.90;99.90;;;;;;4964870;28;20025;-65
2023/03/09 03:10:25;;;;;;;;;;;2.00;99.90;;;;;;4967947;28;19926;-64
2023/03/09 03:12:51;;;;;;;;;;;1.90;99.90;;;;;;4973058;28;20021;-65
2023/03/09 03:15:18;;;;;;;;;;;1.90;99.90;;;;;;4969289;28;20029;-65
2023/03/09 03:17:45;;;;;;;;;;;1.90;99.90;;;;;;4978084;28;19930;-66
2023/03/09 03:20:14;;;;;;;;;;;1.90;99.90;;;;;;4982323;28;19930;-67
2023/03/09 03:22:41;;;;;;;;;;;1.90;99.90;;;;;;4975492;28;19927;-66
2023/03/09 03:25:08;;;;;;;;;;;1.90;99.90;;;;;;4968313;28;20029;-66
2023/03/09 03:27:35;;;;;;;;;;;1.90;99.90;;;;;;4978342;28;19931;-66
2023/03/09 03:30:02;;;;;;;;;;;1.90;99.90;;;;;;5026504;28;19924;-66
2023/03/09 03:32:29;;;;;;;;;;;1.90;99.90;;;;;;4981683;28;19926;-65
2023/03/09 03:34:56;;;;;;;;;;;1.90;99.90;;;;;;4990684;28;19930;-65
2023/03/09 03:37:24;;;;;;;;;;;2.00;99.90;;;;;;4980185;28;19927;-65
2023/03/09 03:39:51;;;;;;;;;;;2.00;99.90;;;;;;4956685;28;19927;-66
2023/03/09 03:42:17;;;;;;;;;;;2.00;99.90;;;;;;4983328;28;20020;-65
2023/03/09 03:44:44;;;;;;;;;;;2.00;99.90;;;;;;5021352;28;20030;-65
2023/03/09 03:47:11;;;;;;;;;;;2.00;99.90;;;;;;4971813;28;19945;-64
2023/03/09 03:49:38;;;;;;;;;;;2.00;99.90;;;;;;4981429;28;19968;-65
2023/03/09 03:52:05;;;;;;;;;;;1.90;99.90;;;;;;4967772;28;19973;-65
2023/03/09 03:54:33;;;;;;;;;;;2.00;99.90;;;;;;4966746;28;19927;-65
2023/03/09 03:57:00;;;;;;;;;;;2.00;99.90;;;;;;4960711;28;20381;-65
2023/03/09 03:59:26;;;;;;;;;;;2.00;99.90;;;;;;4965551;28;20401;-65
2023/03/09 04:01:53;;;;;;;;;;;2.00;99.90;;;;;;4983637;28;20287;-65
2023/03/09 04:04:20;;;;;;;;;;;1.90;99.90;;;;;;4993072;28;19982;-65
2023/03/09 04:06:47;;;;;;;;;;;2.00;99.90;;;;;;5026743;28;19930;-65
2023/03/09 04:09:14;;;;;;;;;;;1.90;99.90;;;;;;4958152;28;19930;-65
2023/03/09 04:11:42;;;;;;;;;;;1.90;99.90;;;;;;4959337;28;20389;-65
2023/03/09 04:14:08;;;;;;;;;;;1.90;99.90;;;;;;4966552;28;19927;-65
2023/03/09 04:16:37;;;;;;;;;;;1.90;99.90;;;;;;4968823;28;20029;-66
2023/03/09 04:19:04;;;;;;;;;;;1.90;99.90;;;;;;4979158;28;19926;-66
2023/03/09 04:21:34;;;;;;;;;;;1.90;99.90;;;;;;5040556;28;19927;-67
2023/03/09 04:24:04;;;;;;;;;;;1.90;99.90;;;;;;4972841;28;20010;-67
2023/03/09 04:26:31;;;;;;;;;;;1.90;99.90;;;;;;4969598;28;20016;-66
2023/03/09 04:28:59;;;;;;;;;;;1.90;99.90;;;;;;4965633;28;20007;-65
2023/03/09 04:31:26;;;;;;;;;;;1.90;99.90;;;;;;4968279;28;19931;-66
2023/03/09 04:33:53;;;;;;;;;;;1.90;99.90;;;;;;4971585;28;19962;-66
2023/03/09 04:36:19;;;;;;;;;;;1.90;99.90;;;;;;4953406;28;19988;-67
2023/03/09 04:38:46;;;;;;;;;;;1.90;99.90;;;;;;4967885;28;19942;-66
2023/03/09 04:41:13;;;;;;;;;;;1.90;99.90;;;;;;4967008;28;19932;-66
2023/03/09 04:43:40;;;;;;;;;;;1.90;99.90;;;;;;4964649;28;19926;-66
2023/03/09 04:46:08;;;;;;;;;;;1.90;99.90;;;;;;4966077;28;19952;-66
2023/03/09 04:48:35;;;;;;;;;;;1.90;99.90;;;;;;4962468;28;20523;-66
2023/03/09 04:51:01;;;;;;;;;;;2.00;99.90;;;;;;4971154;28;19926;-66
2023/03/09 04:53:28;;;;;;;;;;;2.00;99.90;;;;;;4966306;28;20017;-65
2023/03/09 04:55:55;;;;;;;;;;;2.00;99.90;;;;;;4975538;28;20067;-65
2023/03/09 04:58:21;;;;;;;;;;;2.00;99.90;;;;;;4973874;28;19926;-65
2023/03/09 05:00:48;;;;;;;;;;;1.90;99.90;;;;;;4993810;28;20017;-66
2023/03/09 05:03:16;;;;;;;;;;;2.00;99.90;;;;;;4976799;28;19938;-65
2023/03/09 05:05:43;;;;;;;;;;;2.00;99.90;;;;;;4968362;28;20396;-65
2023/03/09 05:08:10;;;;;;;;;;;2.00;99.90;;;;;;4970187;28;19933;-65
2023/03/09 05:10:36;;;;;;;;;;;2.00;99.90;;;;;;4968234;28;20378;-65
2023/03/09 05:13:03;;;;;;;;;;;2.00;99.90;;;;;;4964962;28;19937;-64
2023/03/09 05:15:30;;;;;;;;;;;1.90;99.90;;;;;;4951648;28;19926;-65
2023/03/09 05:17:57;;;;;;;;;;;1.90;99.90;;;;;;4979841;28;19929;-65
2023/03/09 05:20:26;;;;;;;;;;;1.90;99.90;;;;;;4973900;28;19933;-65
2023/03/09 05:22:54;;;;;;;;;;;1.90;99.90;;;;;;4954689;28;20301;-66
2023/03/09 05:25:22;;;;;;;;;;;1.90;99.90;;;;;;4970472;28;19968;-65
2023/03/09 05:27:49;;;;;;;;;;;1.90;99.90;;;;;;4963420;28;20435;-65
2023/03/09 05:30:16;;;;;;;;;;;2.00;99.90;;;;;;4997364;28;20012;-66
2023/03/09 05:32:42;;;;;;;;;;;2.00;99.90;;;;;;4988844;28;20784;-66
2023/03/09 05:35:09;;;;;;;;;;;2.00;99.90;;;;;;4979408;28;20383;-65
2023/03/09 05:37:38;;;;;;;;;;;2.00;99.90;;;;;;5021808;28;20021;-65
2023/03/09 05:40:06;;;;;;;;;;;2.00;99.90;;;;;;4992750;28;19925;-66
2023/03/09 05:42:32;;;;;;;;;;;2.00;99.90;;;;;;4971773;28;19949;-65
2023/03/09 05:45:02;;;;;;;;;;;2.00;99.90;;;;;;4964855;28;19926;-65
2023/03/09 05:47:28;;;;;;;;;;;1.90;99.90;;;;;;4984972;28;19924;-65
2023/03/09 05:49:55;;;;;;;;;;;1.90;99.90;;;;;;5019194;28;20393;-65
2023/03/09 05:52:22;;;;;;;;;;;2.00;99.90;;;;;;4960420;28;20048;-65
2023/03/09 05:54:50;;;;;;;;;;;2.00;99.90;;;;;;4972421;28;19930;-65
2023/03/09 05:57:17;;;;;;;;;;;2.00;99.90;;;;;;5005914;28;20449;-65
2023/03/09 05:59:43;;;;;;;;;;;1.90;99.90;;;;;;4965172;28;19981;-65
2023/03/09 06:02:10;;;;;;;;;;;1.90;99.90;;;;;;5013066;28;19938;-65
2023/03/09 06:04:37;;;;;;;;;;;1.90;99.90;;;;;;4968212;28;19970;-65
2023/03/09 06:07:03;;;;;;;;;;;2.00;99.90;;;;;;5008322;28;20301;-65
2023/03/09 06:09:30;;;;;;;;;;;2.00;99.90;;;;;;4955357;28;20381;-65
2023/03/09 06:11:58;;;;;;;;;;;2.00;99.90;;;;;;4965958;28;20424;-66
2023/03/09 06:14:25;;;;;;;;;;;2.00;99.90;;;;;;4963014;28;20385;-66
2023/03/09 06:16:52;;;;;;;;;;;2.00;99.90;;;;;;4970161;28;20417;-66
2023/03/09 06:19:19;;;;;;;;;;;2.00;99.90;;;;;;4953546;28;19978;-67
2023/03/09 06:21:46;;;;;;;;;;;2.00;99.90;;;;;;4956060;28;19926;-67
2023/03/09 06:24:13;;;;;;;;;;;2.00;99.90;;;;;;4952733;28;20389;-66
2023/03/09 06:26:39;;;;;;;;;;;2.00;99.90;;;;;;4957832;28;20353;-66
2023/03/09 06:29:08;;;;;;;;;;;2.10;99.90;;;;;;4949707;28;20007;-67
2023/03/09 06:31:34;;;;;;;;;;;2.10;99.90;;;;;;4953929;28;19979;-66
2023/03/09 06:34:04;;;;;;;;;;;2.10;99.90;;;;;;4964328;28;19969;-66
2023/03/09 06:36:32;;;;;;;;;;;2.10;99.90;;;;;;4963458;28;19926;-66
2023/03/09 06:38:59;;;;;;;;;;;2.10;99.90;;;;;;4957748;28;19926;-66
2023/03/09 06:41:31;;;;;;;;;;;2.10;99.90;;;;;;4951216;28;20013;-67
2023/03/09 06:43:58;;;;;;;;;;;2.20;99.90;;;;;;4954885;28;20408;-66
2023/03/09 06:46:26;;;;;;;;;;;2.20;99.90;;;;;;4961165;28;19934;-65
2023/03/09 06:48:53;;;;;;;;;;;2.20;99.90;;;;;;4954947;28;19930;-66
2023/03/09 06:51:20;;;;;;;;;;;2.20;99.90;;;;;;4967974;28;19930;-66
2023/03/09 06:53:47;;;;;;;;;;;2.10;99.90;;;;;;4953508;28;19927;-66
2023/03/09 06:56:14;;;;;;;;;;;2.20;99.90;;;;;;4955066;28;19961;-66
2023/03/09 06:58:40;;;;;;;;;;;2.20;99.90;;;;;;4958701;28;20029;-66
2023/03/09 07:01:07;;;;;;;;;;;2.10;99.90;;;;;;4958297;28;19965;-65
2023/03/09 07:03:36;;;;;;;;;;;2.20;99.90;;;;;;4954408;28;19927;-65
2023/03/09 07:06:03;;;;;;;;;;;2.10;99.90;;;;;;4969109;28;20377;-66
2023/03/09 07:08:29;;;;;;;;;;;2.20;99.90;;;;;;4957748;28;20504;-66
2023/03/09 07:10:56;;;;;;;;;;;2.20;99.90;;;;;;4956174;28;20377;-67
2023/03/09 07:13:23;;;;;;;;;;;2.20;99.90;;;;;;4957154;28;19927;-66
2023/03/09 07:15:50;;;;;;;;;;;2.20;99.90;;;;;;5012721;28;19938;-66
2023/03/09 07:18:21;;;;;;;;;;;2.30;99.90;;;;;;4964827;28;20415;-66
2023/03/09 07:20:49;;;;;;;;;;;2.30;99.90;;;;;;4974714;28;20013;-65
2023/03/09 07:23:16;;;;;;;;;;;2.40;99.90;;;;;;4960208;28;19927;-67
2023/03/09 07:25:42;;;;;;;;;;;2.50;99.90;;;;;;4987320;28;19966;-66
2023/03/09 07:28:09;;;;;;;;;;;2.50;99.90;;;;;;5022434;28;20710;-66
2023/03/09 07:30:37;;;;;;;;;;;2.40;99.90;;;;;;4999331;28;20029;-66
2023/03/09 07:33:03;;;;;;;;;;;2.30;99.90;;;;;;4978212;28;20029;-65
2023/03/09 07:35:30;;;;;;;;;;;2.30;99.90;;;;;;4970022;28;19926;-65
2023/03/09 07:37:58;;;;;;;;;;;2.40;99.90;;;;;;5010000;28;19934;-65
2023/03/09 07:40:25;;;;;;;;;;;2.40;99.90;;;;;;4976115;28;20013;-66
2023/03/09 07:42:53;;;;;;;;;;;2.40;99.90;;;;;;4989468;28;19925;-65
2023/03/09 07:45:20;;;;;;;;;;;2.50;99.90;;;;;;4999743;28;19927;-66
2023/03/09 07:47:47;;;;;;;;;;;2.50;99.90;;;;;;4971280;28;19952;-66
2023/03/09 07:50:14;;;;;;;;;;;2.60;99.90;;;;;;5024166;28;19931;-66
2023/03/09 07:52:40;;;;;;;;;;;2.70;99.90;;;;;;4991995;28;19926;-65
2023/03/09 07:55:11;;;;;;;;;;;2.80;99.90;;;;;;5012981;28;20004;-66
2023/03/09 07:57:38;;;;;;;;;;;2.70;99.90;;;;;;4970062;28;19926;-65
2023/03/09 08:00:11;;;;;;;;;;;2.50;99.90;;;;;;4963002;28;19926;-67
2023/03/09 08:02:37;;;;;;;;;;;2.60;99.90;;;;;;4974979;28;19930;-65
2023/03/09 08:05:07;;;;;;;;;;;2.70;99.90;;;;;;4999194;28;20013;-66
2023/03/09 08:07:34;;;;;;;;;;;2.90;99.90;;;;;;4956136;28;20021;-66
2023/03/09 08:10:00;;;;;;;;;;;3.20;99.90;;;;;;4961408;28;19965;-65
2023/03/09 08:12:28;;;;;;;;;;;3.40;99.90;;;;;;4958430;28;19995;-65
2023/03/09 08:14:55;;;;;;;;;;;3.50;99.90;;;;;;4953531;28;19935;-65
2023/03/09 08:17:22;;;;;;;;;;;3.50;99.90;;;;;;4954036;28;19936;-64
2023/03/09 08:19:50;;;;;;;;;;;3.40;99.90;;;;;;4957587;28;19987;-67
2023/03/09 08:22:17;;;;;;;;;;;3.60;99.90;;;;;;4962235;28;19927;-65
2023/03/09 08:24:44;;;;;;;;;;;3.70;99.90;;;;;;4967664;28;19926;-64
2023/03/09 08:27:11;;;;;;;;;;;3.80;99.90;;;;;;4960554;28;19965;-64
2023/03/09 08:29:39;;;;;;;;;;;3.80;99.90;;;;;;4962728;28;19979;-65
2023/03/09 08:32:06;;;;;;;;;;;3.80;99.90;;;;;;4957269;28;19926;-65
2023/03/09 08:34:33;;;;;;;;;;;3.80;99.90;;;;;;4960727;28;19926;-66
2023/03/09 08:36:59;;;;;;;;;;;3.60;99.90;;;;;;4973869;28;19957;-65
2023/03/09 08:39:27;;;;;;;;;;;3.60;99.90;;;;;;4951756;28;20496;-66
2023/03/09 08:41:54;;;;;;;;;;;3.60;99.90;;;;;;4958548;28;19933;-64
2023/03/09 08:44:20;;;;;;;;;;;3.70;99.90;;;;;;4958347;28;19934;-66
2023/03/09 08:46:48;;;;;;;;;;;3.80;99.90;;;;;;4955023;28;19992;-65
2023/03/09 08:49:15;;;;;;;;;;;3.90;99.90;;;;;;4955296;28;20002;-65
2023/03/09 08:51:42;;;;;;;;;;;4.00;99.90;;;;;;4965923;28;20294;-65
2023/03/09 08:54:09;;;;;;;;;;;4.10;99.90;;;;;;4964268;28;20002;-66
2023/03/09 08:56:35;;;;;;;;;;;4.10;99.90;;;;;;4964079;28;19930;-65
2023/03/09 08:59:03;;;;;;;;;;;4.10;99.90;;;;;;4956204;28;19933;-65
2023/03/09 09:01:29;;;;;;;;;;;4.20;99.90;;;;;;4958931;28;20336;-65
2023/03/09 09:03:57;;;;;;;;;;;4.30;99.90;;;;;;4963370;28;20559;-66
2023/03/09 09:06:24;;;;;;;;;;;4.40;99.90;;;;;;4966344;28;19969;-66
2023/03/09 09:08:51;;;;;;;;;;;4.50;99.90;;;;;;4968447;28;20000;-65
2023/03/09 09:11:18;;;;;;;;;;;4.50;99.90;;;;;;4954869;28;20493;-65
2023/03/09 09:13:44;;;;;;;;;;;4.10;99.90;;;;;;4958894;28;19931;-66
2023/03/09 09:16:11;;;;;;;;;;;4.00;99.90;;;;;;4960483;28;20005;-65
2023/03/09 09:18:38;;;;;;;;;;;3.80;99.90;;;;;;4989436;28;19931;-67
2023/03/09 09:21:10;;;;;;;;;;;4.00;99.90;;;;;;4970438;28;19926;-64
2023/03/09 09:23:36;;;;;;;;;;;4.20;99.90;;;;;;4957244;28;19961;-65
2023/03/09 09:26:03;;;;;;;;;;;4.50;99.90;;;;;;4961329;28;20093;-65
2023/03/09 09:28:30;;;;;;;;;;;4.50;99.90;;;;;;4957851;28;19972;-64
2023/03/09 09:30:58;;;;;;;;;;;4.70;99.90;;;;;;4963879;28;19934;-65
2023/03/09 09:33:25;;;;;;;;;;;4.80;99.90;;;;;;4960802;28;19934;-65
2023/03/09 09:35:55;;;;;;;;;;;4.50;99.90;;;;;;4960619;28;19971;-65
2023/03/09 09:38:24;;;;;;;;;;;4.50;99.90;;;;;;4962573;28;19932;-67
2023/03/09 09:40:51;;;;;;;;;;;4.60;99.90;;;;;;4962693;28;20731;-66
2023/03/09 09:43:20;;;;;;;;;;;4.60;99.90;;;;;;4963148;28;20026;-66
2023/03/09 09:45:52;;;;;;;;;;;4.80;99.90;;;;;;4958609;28;19975;-66
2023/03/09 09:48:20;;;;;;;;;;;4.80;99.90;;;;;;4957198;28;19933;-66
2023/03/09 09:50:53;;;;;;;;;;;4.80;99.90;;;;;;4960428;28;20373;-66
2023/03/09 09:53:24;;;;;;;;;;;4.90;99.90;;;;;;4964867;28;20411;-67
2023/03/09 09:55:52;;;;;;;;;;;5.00;99.90;;;;;;4953780;28;20358;-67
2023/03/09 09:58:24;;;;;;;;;;;5.10;99.90;;;;;;4958526;28;19927;-65
2023/03/09 10:00:54;;;;;;;;;;;5.20;99.90;;;;;;4957790;28;20009;-66
2023/03/09 10:03:22;;;;;;;;;;;4.90;99.90;;;;;;4957439;28;19942;-66
2023/03/09 10:05:51;;;;;;;;;;;4.90;99.90;;;;;;4957210;28;19934;-66
2023/03/09 10:08:23;;;;;;;;;;;5.00;99.90;;;;;;4956456;28;19930;-67
2023/03/09 10:10:50;;;;;;;;;;;4.90;99.90;;;;;;4958625;28;20310;-66
2023/03/09 10:13:21;;;;;;;;;;;4.80;99.90;;;;;;4951193;28;19941;-65
2023/03/09 10:15:48;;;;;;;;;;;4.60;99.90;;;;;;4955410;28;19934;-67
2023/03/09 10:18:18;;;;;;;;;;;4.70;99.90;;;;;;4956690;28;20032;-67
2023/03/09 10:20:47;;;;;;;;;;;5.00;99.90;;;;;;4959166;28;19931;-67
2023/03/09 10:23:19;;;;;;;;;;;5.10;99.90;;;;;;4959411;28;20013;-66
2023/03/09 10:25:47;;;;;;;;;;;5.00;99.90;;;;;;4958004;28;19969;-66
2023/03/09 10:28:16;;;;;;;;;;;4.80;99.90;;;;;;4955036;28;20021;-67
2023/03/09 10:30:47;;;;;;;;;;;4.70;99.90;;;;;;4958118;28;19932;-66
2023/03/09 10:33:17;;;;;;;;;;;4.90;99.90;;;;;;4963554;28;19927;-66
2023/03/09 10:35:45;;;;;;;;;;;5.10;99.90;;;;;;4957303;28;19933;-66
2023/03/09 10:38:15;;;;;;;;;;;5.00;99.90;;;;;;4953003;28;19934;-66
2023/03/09 10:40:43;;;;;;;;;;;4.90;99.90;;;;;;4968073;28;20407;-65
2023/03/09 10:43:13;;;;;;;;;;;4.80;99.90;;;;;;4963035;28;19945;-65
2023/03/09 10:45:40;;;;;;;;;;;4.90;99.90;;;;;;4971575;28;19937;-65
2023/03/09 10:48:19;;;;;;;;;;;4.60;99.90;;;;;;4958035;28;20005;-66
2023/03/09 10:50:55;;;;;;;;;;;4.50;99.90;;;;;;4964848;28;19930;-65
2023/03/09 10:53:23;;;;;;;;;;;4.50;99.90;;;;;;4959352;28;19933;-65
2023/03/09 10:55:52;;;;;;;;;;;4.50;99.90;;;;;;4964478;28;19973;-66
2023/03/09 10:58:21;;;;;;;;;;;4.60;99.90;;;;;;4965052;28;19931;-65
2023/03/09 11:00:58;;;;;;;;;;;4.60;99.90;;;;;;4966296;28;19973;-65
2023/03/09 11:03:31;;;;;;;;;;;4.80;99.90;;;;;;4966272;28;19949;-67
2023/03/09 11:06:08;;;;;;;;;;;4.80;99.90;;;;;;4966684;28;20797;-66
2023/03/09 11:08:35;;;;;;;;;;;5.00;99.90;;;;;;4965217;28;19930;-66
2023/03/09 11:11:03;;;;;;;;;;;5.10;99.90;;;;;;4960391;28;19972;-67
2023/03/09 11:13:29;;;;;;;;;;;5.00;99.90;;;;;;4975510;28;19933;-65
2023/03/09 11:16:07;;;;;;;;;;;4.90;99.90;;;;;;4960752;28;19934;-66
2023/03/09 11:18:35;;;;;;;;;;;5.10;99.90;;;;;;4968041;28;19934;-66
2023/03/09 11:21:01;;;;;;;;;;;5.00;99.90;;;;;;4969147;28;20599;-66
2023/03/09 11:23:30;;;;;;;;;;;5.10;99.90;;;;;;4962965;28;19926;-66
2023/03/09 11:26:02;;;;;;;;;;;5.00;99.90;;;;;;4980242;28;19941;-66
2023/03/09 11:28:35;;;;;;;;;;;5.10;99.90;;;;;;4963711;28;19926;-66
2023/03/09 11:31:01;;;;;;;;;;;5.10;99.90;;;;;;4970521;28;19930;-66
2023/03/09 11:33:30;;;;;;;;;;;5.10;99.90;;;;;;4964481;28;20000;-66
2023/03/09 11:35:59;;;;;;;;;;;5.10;99.90;;;;;;4964775;28;19930;-65
2023/03/09 11:38:27;;;;;;;;;;;5.20;99.90;;;;;;4958370;28;19930;-66
2023/03/09 11:40:59;;;;;;;;;;;5.20;99.90;;;;;;4957112;28;19930;-66
2023/03/09 11:43:28;;;;;;;;;;;5.30;99.90;;;;;;4960714;28;19926;-67
2023/03/09 11:45:57;;;;;;;;;;;5.50;99.90;;;;;;4962466;28;20373;-66
2023/03/09 11:48:26;;;;;;;;;;;5.70;99.90;;;;;;4975297;28;19968;-66
2023/03/09 11:51:01;;;;;;;;;;;5.70;99.90;;;;;;4969430;28;19952;-66
2023/03/09 11:53:31;;;;;;;;;;;5.60;99.90;;;;;;4964200;28;20029;-65
2023/03/09 11:55:59;;;;;;;;;;;5.60;99.90;;;;;;4964571;28;20361;-65
2023/03/09 11:58:28;;;;;;;;;;;5.40;99.90;;;;;;4962184;28;20304;-66
2023/03/09 12:00:59;;;;;;;;;;;5.30;99.90;;;;;;4961753;28;19976;-67
2023/03/09 12:03:28;;;;;;;;;;;5.40;99.90;;;;;;4967219;28;20462;-66
2023/03/09 12:05:56;;;;;;;;;;;5.60;99.90;;;;;;4956877;28;20011;-66
2023/03/09 12:08:28;;;;;;;;;;;5.80;99.90;;;;;;4955357;28;20348;-66
2023/03/09 12:11:00;;;;;;;;;;;5.90;99.90;;;;;;4967223;28;20364;-66
2023/03/09 12:13:30;;;;;;;;;;;5.70;99.90;;;;;;4954705;28;20278;-66
2023/03/09 12:16:00;;;;;;;;;;;5.60;99.90;;;;;;4955015;28;20388;-66
2023/03/09 12:18:29;;;;;;;;;;;5.80;99.90;;;;;;4968002;28;19926;-66
2023/03/09 12:20:57;;;;;;;;;;;5.90;99.90;;;;;;4971601;28;19965;-67
2023/03/09 12:23:45;;;;;;;;;;;6.20;99.90;;;;;;4963415;28;19934;-67
2023/03/09 12:26:22;;;;;;;;;;;6.70;99.90;;;;;;4965185;28;19979;-66
2023/03/09 12:28:57;;;;;;;;;;;6.30;99.90;;;;;;4962904;28;19933;-66
2023/03/09 12:31:29;;;;;;;;;;;6.20;99.90;;;;;;4956068;28;20473;-66
2023/03/09 12:34:04;;;;;;;;;;;6.30;99.90;;;;;;4961626;28;19931;-66
2023/03/09 12:36:32;;;;;;;;;;;6.70;99.90;;;;;;4965085;28;19934;-66
2023/03/09 12:39:18;;;;;;;;;;;7.00;99.90;;;;;;4965930;28;19926;-66
2023/03/09 12:41:57;;;;;;;;;;;7.00;99.90;;;;;;4959436;28;19926;-66
2023/03/09 12:44:38;;;;;;;;;;;7.20;99.90;;;;;;4959523;28;20013;-66
2023/03/09 12:47:05;;;;;;;;;;;7.60;99.90;;;;;;4955129;28;19936;-66
2023/03/09 12:49:40;;;;;;;;;;;7.80;99.90;;;;;;4975935;28;19927;-66
2023/03/09 12:52:13;;;;;;;;;;;8.00;99.90;;;;;;4966889;28;19926;-66
2023/03/09 12:54:40;;;;;;;;;;;8.20;99.90;;;;;;4953378;28;19930;-65
2023/03/09 12:57:19;;;;;;;;;;;8.50;99.90;;;;;;4956659;28;19926;-64
2023/03/09 12:59:48;;;;;;;;;;;8.70;99.90;;;;;;4958967;28;19926;-65
2023/03/09 13:02:33;;;;;;;;;;;8.70;99.90;;;;;;4957942;28;19926;-64
2023/03/09 13:05:13;;;;;;;;;;;8.50;99.90;;;;;;4955984;28;19926;-65
2023/03/09 13:07:41;;;;;;;;;;;8.40;99.90;;;;;;4964623;28;20022;-64
2023/03/09 13:10:18;;;;;;;;;;;8.30;99.90;;;;;;4957951;28;19930;-65
2023/03/09 13:12:47;;;;;;;;;;;8.50;99.90;;;;;;4959720;28;19941;-65
2023/03/09 13:15:21;;;;;;;;;;;8.70;99.90;;;;;;4957475;28;20389;-65
2023/03/09 13:18:03;;;;;;;;;;;8.80;99.90;;;;;;4960065;28;19927;-64
2023/03/09 13:20:35;;;;;;;;;;;8.80;99.90;;;;;;4968160;28;19926;-64
2023/03/09 13:23:05;;;;;;;;;;;8.90;99.90;;;;;;4952290;28;19927;-64
2023/03/09 13:25:34;;;;;;;;;;;8.80;99.90;;;;;;4959626;28;19933;-64
2023/03/09 13:28:16;;;;;;;;;;;8.90;99.90;;;;;;4957999;28;19958;-64
2023/03/09 13:30:45;;;;;;;;;;;8.90;99.90;;;;;;4966082;28;20025;-64
2023/03/09 13:33:15;;;;;;;;;;;9.00;99.90;;;;;;4955649;28;19965;-65
2023/03/09 13:35:43;;;;;;;;;;;9.10;99.90;;;;;;4959592;28;19933;-64
2023/03/09 13:38:18;;;;;;;;;;;9.00;99.90;;;;;;4964192;28;19926;-65
2023/03/09 13:40:49;;;;;;;;;;;9.10;99.90;;;;;;4962893;28;20404;-65
2023/03/09 13:43:18;;;;;;;;;;;9.20;99.90;;;;;;4958616;28;19927;-64
2023/03/09 13:45:56;;;;;;;;;;;9.40;99.90;;;;;;4961582;28;20024;-64
2023/03/09 13:48:22;;;;;;;;;;;10.10;99.90;;;;;;4964055;28;19997;-66
2023/03/09 13:50:49;;;;;;;;;;;10.10;99.90;;;;;;4964975;28;19973;-65
2023/03/09 13:53:23;;;;;;;;;;;10.10;99.90;;;;;;4963146;28;20281;-66
2023/03/09 13:55:57;;;;;;;;;;;10.10;99.90;;;;;;4960660;28;19926;-65
2023/03/09 13:58:24;;;;;;;;;;;10.40;99.90;;;;;;4958220;28;20280;-65
2023/03/09 14:00:53;;;;;;;;;;;10.80;99.90;;;;;;4970833;28;20013;-64
2023/03/09 14:03:21;;;;;;;;;;;11.20;99.90;;;;;;4956312;28;19941;-66
2023/03/09 14:05:55;;;;;;;;;;;11.50;99.90;;;;;;4963904;28;19933;-65
2023/03/09 14:08:22;;;;;;;;;;;11.80;99.90;;;;;;4953086;28;20328;-65
2023/03/09 14:10:50;;;;;;;;;;;12.00;99.90;;;;;;4961998;28;20705;-65
2023/03/09 14:13:19;;;;;;;;;;;12.10;99.90;;;;;;4958768;28;20397;-64
2023/03/09 14:15:50;;;;;;;;;;;12.20;99.90;;;;;;4961841;28;19930;-65
2023/03/09 14:18:24;;;;;;;;;;;12.40;99.90;;;;;;4960047;28;19932;-64
2023/03/09 14:20:52;;;;;;;;;;;12.50;99.90;;;;;;4961025;28;19932;-64
2023/03/09 14:23:29;;;;;;;;;;;12.60;99.90;;;;;;4957592;28;19948;-65
2023/03/09 14:25:56;;;;;;;;;;;12.70;99.90;;;;;;4948858;28;19930;-64
2023/03/09 14:28:24;;;;;;;;;;;12.80;99.90;;;;;;4950155;28;19936;-65
2023/03/09 14:30:51;;;;;;;;;;;12.90;99.90;;;;;;4963468;28;19933;-65
2023/03/09 14:33:23;;;;;;;;;;;13.00;99.90;;;;;;4955289;28;20350;-66
2023/03/09 14:35:50;;;;;;;;;;;12.90;99.90;;;;;;4952550;28;19945;-66